createdAt,value
2018-08-20T00:01:32.597Z,3.90
2018-08-20T00:06:50.511Z,4.53
2018-08-20T00:11:54.033Z,4.50
2018-08-20T00:16:57.492Z,4.53
2018-08-20T00:22:01.227Z,4.23
2018-08-20T00:27:04.857Z,4.70
2018-08-20T00:32:09.112Z,4.50
2018-08-20T00:37:12.635Z,4.10
2018-08-20T00:42:16.262Z,4.67
2018-08-20T00:47:19.963Z,4.28
2018-08-20T00:52:24.273Z,4.50
2018-08-20T00:57:27.798Z,4.33
2018-08-20T01:02:32.292Z,3.93
2018-08-20T01:07:35.685Z,4.10
2018-08-20T01:12:39.181Z,4.20
2018-08-20T01:17:42.885Z,3.90
2018-08-20T01:22:46.359Z,4.10
2018-08-20T01:27:50.609Z,3.93
2018-08-20T01:33:00.894Z,4.40
2018-08-20T01:38:05.173Z,4.47
2018-08-20T01:43:09.395Z,4.63
2018-08-20T01:48:12.975Z,4.13
2018-08-20T01:53:16.658Z,4.92
2018-08-20T01:58:20.377Z,4.30
2018-08-20T02:03:24.029Z,4.70
2018-08-20T02:08:27.870Z,4.17
2018-08-20T02:13:31.532Z,4.50
2018-08-20T02:18:34.973Z,5.10
2018-08-20T02:23:39.496Z,4.47
2018-08-20T02:28:42.808Z,3.90
2018-08-20T02:33:46.390Z,4.50
2018-08-20T02:38:50.196Z,4.10
2018-08-20T02:43:53.971Z,4.17
2018-08-20T02:48:57.518Z,4.33
2018-08-20T02:54:01.222Z,4.40
2018-08-20T02:59:04.847Z,4.20
2018-08-20T03:04:08.556Z,5.57
2018-08-20T03:09:13.508Z,4.58
2018-08-20T03:14:16.900Z,4.47
2018-08-20T03:19:20.753Z,3.60
2018-08-20T03:24:24.180Z,4.20
2018-08-20T03:29:27.754Z,5.37
2018-08-20T03:34:31.227Z,4.17
2018-08-20T03:39:34.978Z,4.70
2018-08-20T03:44:38.414Z,5.03
2018-08-20T03:49:43.122Z,4.80
2018-08-20T03:54:46.691Z,4.83
2018-08-20T03:59:50.291Z,4.77
2018-08-20T04:04:53.753Z,4.20
2018-08-20T04:09:58.022Z,4.83
2018-08-20T04:15:01.833Z,5.00
2018-08-20T04:20:06.087Z,4.65
2018-08-20T04:25:09.732Z,4.60
2018-08-20T04:30:13.182Z,5.15
2018-08-20T04:35:16.549Z,4.33
2018-08-20T04:40:20.003Z,4.90
2018-08-20T04:45:24.046Z,4.35
2018-08-20T04:50:27.789Z,5.50
2018-08-20T04:55:30.767Z,5.30
2018-08-20T05:00:34.206Z,4.90
2018-08-20T05:05:37.744Z,5.00
2018-08-20T05:10:41.074Z,4.40
2018-08-20T05:15:44.426Z,5.70
2018-08-20T05:20:47.967Z,5.10
2018-08-20T05:25:51.363Z,4.60
2018-08-20T05:30:56.391Z,5.07
2018-08-20T05:36:00.241Z,4.70
2018-08-20T05:41:04.339Z,4.70
2018-08-20T05:46:08.242Z,4.47
2018-08-20T05:51:12.148Z,5.10
2018-08-20T05:56:15.949Z,5.43
2018-08-20T06:01:20.714Z,4.92
2018-08-20T06:06:25.086Z,5.20
2018-08-20T06:11:30.688Z,4.63
2018-08-20T06:16:37.639Z,5.30
2018-08-20T06:21:41.913Z,4.80
2018-08-20T06:26:47.523Z,5.27
2018-08-20T06:31:51.656Z,4.20
2018-08-20T06:36:56.771Z,4.27
2018-08-20T06:42:03.208Z,3.80
2018-08-20T06:47:07.486Z,4.40
2018-08-20T06:52:11.722Z,3.60
2018-08-20T06:57:16.628Z,3.87
2018-08-20T07:02:21.147Z,3.43
2018-08-20T07:07:26.025Z,3.17
2018-08-20T07:12:31.426Z,3.60
2018-08-20T07:17:36.598Z,2.70
2018-08-20T07:22:42.295Z,3.20
2018-08-20T07:27:46.707Z,3.13
2018-08-20T07:32:51.557Z,3.23
2018-08-20T07:37:55.698Z,2.90
2018-08-20T07:42:59.863Z,3.40
2018-08-20T07:48:04.428Z,2.90
2018-08-20T07:53:09.836Z,3.13
2018-08-20T07:58:13.940Z,3.60
2018-08-20T08:03:23.049Z,2.77
2018-08-20T08:08:27.602Z,2.40
2018-08-20T08:13:32.203Z,2.90
2018-08-20T08:18:36.820Z,2.80
2018-08-20T08:23:41.300Z,3.57
2018-08-20T08:28:45.306Z,3.27
2018-08-20T08:33:50.028Z,2.87
2018-08-20T08:38:53.881Z,2.50
2018-08-20T08:43:58.735Z,3.00
2018-08-20T08:49:02.741Z,2.20
2018-08-20T08:54:07.614Z,2.60
2018-08-20T08:59:12.894Z,2.77
2018-08-20T09:04:17.639Z,2.57
2018-08-20T09:09:21.395Z,3.00
2018-08-20T09:14:25.921Z,2.20
2018-08-20T09:19:30.117Z,3.17
2018-08-20T09:24:34.264Z,2.90
2018-08-20T09:29:38.774Z,3.10
2018-08-20T09:34:43.075Z,2.37
2018-08-20T09:39:47.468Z,2.40
2018-08-20T09:44:51.897Z,2.60
2018-08-20T09:49:55.828Z,2.40
2018-08-20T09:54:59.988Z,3.17
2018-08-20T10:00:04.776Z,2.90
2018-08-20T10:05:10.288Z,2.13
2018-08-20T10:10:14.417Z,2.90
2018-08-20T10:15:20.771Z,2.37
2018-08-20T10:20:25.322Z,2.70
2018-08-20T10:25:29.756Z,3.27
2018-08-20T10:30:34.166Z,2.70
2018-08-20T10:35:37.883Z,3.03
2018-08-20T10:40:41.930Z,3.10
2018-08-20T10:45:52.442Z,2.93
2018-08-20T10:50:56.589Z,3.40
2018-08-20T10:56:02.111Z,3.50
2018-08-20T11:01:07.315Z,3.27
2018-08-20T11:06:11.442Z,3.30
2018-08-20T11:11:15.427Z,2.70
2018-08-20T11:16:20.269Z,3.13
2018-08-20T11:21:24.163Z,3.05
2018-08-20T11:26:29.372Z,2.93
2018-08-20T11:31:32.922Z,3.27
2018-08-20T11:36:37.891Z,3.00
2018-08-20T11:41:42.323Z,3.27
2018-08-20T11:46:46.525Z,3.10
2018-08-20T11:51:51.183Z,3.83
2018-08-20T11:56:55.724Z,3.27
2018-08-20T12:02:00.773Z,2.03
2018-08-20T12:07:05.370Z,2.83
2018-08-20T12:12:09.284Z,3.00
2018-08-20T12:17:13.228Z,2.53
2018-08-20T12:22:17.113Z,3.40
2018-08-20T12:27:20.929Z,2.77
2018-08-20T12:32:25.302Z,2.80
2018-08-20T12:37:29.319Z,3.40
2018-08-20T12:42:33.008Z,3.17
2018-08-20T12:47:37.128Z,2.63
2018-08-20T12:52:41.692Z,2.80
2018-08-20T12:57:46.144Z,2.90
2018-08-20T13:02:50.005Z,4.10
2018-08-20T13:07:54.083Z,2.67
2018-08-20T13:12:58.402Z,2.10
2018-08-20T13:18:02.455Z,2.30
2018-08-20T13:23:06.997Z,2.55
2018-08-20T13:28:10.122Z,3.07
2018-08-20T13:33:13.255Z,2.30
2018-08-20T13:38:16.396Z,2.67
2018-08-20T13:43:19.697Z,2.33
2018-08-20T13:48:22.832Z,2.53
2018-08-20T13:53:25.977Z,2.90
2018-08-20T13:58:29.120Z,3.03
2018-08-20T14:03:32.428Z,3.40
2018-08-20T14:08:35.493Z,3.00
2018-08-20T14:13:38.626Z,3.00
2018-08-20T14:18:41.745Z,2.77
2018-08-20T14:23:46.321Z,3.00
2018-08-20T14:28:49.461Z,3.33
2018-08-20T14:33:52.594Z,2.90
2018-08-20T14:38:55.749Z,3.60
2018-08-20T14:43:58.877Z,3.03
2018-08-20T14:49:02.013Z,3.80
2018-08-20T14:54:05.682Z,2.80
2018-08-20T14:59:08.813Z,3.50
2018-08-20T15:04:11.949Z,3.90
2018-08-20T15:09:15.102Z,4.17
2018-08-20T15:14:18.225Z,4.30
2018-08-20T15:19:21.369Z,3.80
2018-08-20T15:24:24.505Z,4.03
2018-08-20T15:29:27.645Z,4.30
2018-08-20T15:34:30.789Z,3.70
2018-08-20T15:39:33.968Z,4.03
2018-08-20T15:44:37.069Z,3.53
2018-08-20T15:49:40.200Z,3.63
2018-08-20T15:54:43.333Z,4.30
2018-08-20T15:59:46.474Z,4.13
2018-08-20T16:04:49.638Z,3.43
2018-08-20T16:09:52.773Z,3.90
2018-08-20T16:14:55.908Z,3.80
2018-08-20T16:19:59.052Z,3.80
2018-08-20T16:25:02.189Z,3.73
2018-08-20T16:30:08.854Z,3.80
2018-08-20T16:35:12.905Z,4.07
2018-08-20T16:40:16.041Z,4.42
2018-08-20T16:45:19.241Z,4.00
2018-08-20T16:50:22.337Z,3.20
2018-08-20T16:55:25.481Z,3.20
2018-08-20T17:00:28.621Z,3.30
2018-08-20T17:05:38.955Z,3.50
2018-08-20T17:10:42.030Z,3.50
2018-08-20T17:15:45.169Z,3.20
2018-08-20T17:20:48.409Z,2.37
2018-08-20T17:25:54.428Z,3.40
2018-08-20T17:31:00.883Z,3.27
2018-08-20T17:36:04.881Z,3.47
2018-08-20T17:41:09.075Z,3.33
2018-08-20T17:46:12.222Z,3.35
2018-08-20T17:51:15.354Z,3.97
2018-08-20T17:56:18.472Z,3.02
2018-08-20T18:01:21.645Z,3.40
2018-08-20T18:06:49.185Z,3.77
2018-08-20T18:11:54.396Z,3.30
2018-08-20T18:16:57.547Z,8.23
2018-08-20T18:22:00.697Z,4.28
2018-08-20T18:27:03.829Z,4.87
2018-08-20T18:32:06.961Z,3.50
2018-08-20T18:37:10.488Z,3.97
2018-08-20T18:42:14.728Z,4.20
2018-08-20T18:47:18.764Z,3.60
2018-08-20T18:52:22.948Z,4.00
2018-08-20T18:57:27.941Z,4.33
2018-08-20T19:03:03.124Z,5.80
2018-08-20T19:08:06.695Z,4.30
2018-08-20T19:13:09.836Z,4.95
2018-08-20T19:18:15.894Z,5.87
2018-08-20T19:23:19.035Z,4.28
2018-08-20T19:28:23.848Z,4.45
2018-08-20T19:33:28.593Z,5.80
2018-08-20T19:38:31.792Z,9.08
2018-08-20T19:43:40.252Z,11.30
2018-08-20T19:48:43.373Z,10.80
2018-08-20T19:53:46.514Z,8.83
2018-08-20T19:58:49.661Z,6.20
2018-08-20T20:03:52.813Z,4.80
2018-08-20T20:08:55.961Z,5.17
2018-08-20T20:14:00.790Z,4.40
2018-08-20T20:19:03.961Z,4.47
2018-08-20T20:24:07.729Z,4.17
2018-08-20T20:29:11.459Z,4.17
2018-08-20T20:34:14.577Z,4.72
2018-08-20T20:39:17.729Z,4.30
2018-08-20T20:44:20.860Z,4.60
2018-08-20T20:49:23.992Z,4.40
2018-08-20T20:54:27.134Z,4.60
2018-08-20T20:59:30.333Z,4.63
2018-08-20T21:04:35.041Z,3.63
2018-08-20T21:09:43.584Z,4.87
2018-08-20T21:14:46.777Z,4.23
2018-08-20T21:19:49.966Z,3.93
2018-08-20T21:24:53.045Z,4.70
2018-08-20T21:30:00.556Z,3.70
2018-08-20T21:35:03.749Z,3.77
2018-08-20T21:40:06.893Z,4.20
2018-08-20T21:45:10.025Z,3.60
2018-08-20T21:50:13.169Z,4.33
2018-08-20T21:55:16.336Z,3.67
2018-08-20T22:00:20.433Z,4.10
2018-08-20T22:05:23.576Z,3.67
2018-08-20T22:10:28.104Z,3.80
2018-08-20T22:15:31.228Z,4.50
2018-08-20T22:20:34.369Z,3.77
2018-08-20T22:25:38.165Z,4.20
2018-08-20T22:30:45.531Z,3.93
2018-08-20T22:35:48.695Z,4.67
2018-08-20T22:40:51.793Z,4.30
2018-08-20T22:45:54.932Z,3.87
2018-08-20T22:51:08.168Z,3.83
2018-08-20T22:56:13.889Z,4.47
2018-08-20T23:01:17.040Z,4.67
2018-08-20T23:06:20.249Z,4.50
2018-08-20T23:11:37.860Z,3.75
2018-08-20T23:16:41.191Z,3.80
2018-08-20T23:21:45.369Z,4.63
2018-08-20T23:26:48.501Z,4.23
2018-08-20T23:31:51.661Z,5.00
2018-08-20T23:36:54.799Z,3.80
2018-08-20T23:41:57.921Z,4.03
2018-08-20T23:47:01.057Z,4.40
2018-08-20T23:52:04.197Z,4.30
2018-08-20T23:57:07.329Z,4.23
